Time;durP1;ratioP1;P1;durP2;ratioP2;P2;SDS_P1;SDS_P2;PMS_P1;PMS_P2;Temp;Humidity;BMP_temperature;BMP_pressure;BME280_temperature;BME280_humidity;BME280_pressure;Samples;Min_cycle;Max_cycle;Signal;HPM_P1;HPM_P2
2023/12/20 00:09:49;;;;;;;10.82;8.23;;;;;;;20.44;53.27;100473.09;41743951;28;20065;-78
2023/12/20 00:29:50;;;;;;;11.05;8.13;;;;;;;20.36;53.61;100449.19;41736203;28;20034;-76
2023/12/20 00:49:50;;;;;;;9.98;7.57;;;;;;;20.36;52.94;100403.63;41737320;28;20048;-76
2023/12/20 01:09:51;;;;;;;9.25;7.00;;;;;;;20.31;52.93;100388.16;41757517;28;20052;-76
2023/12/20 01:29:51;;;;;;;10.13;7.70;;;;;;;20.30;52.90;100363.69;41737371;28;20048;-77
2023/12/20 01:49:52;;;;;;;9.05;6.95;;;;;;;20.25;53.17;100323.75;41734695;28;20608;-75
2023/12/20 02:09:52;;;;;;;9.45;7.28;;;;;;;20.28;52.90;100283.25;41734826;28;20570;-76
2023/12/20 02:29:53;;;;;;;9.32;6.95;;;;;;;20.28;52.73;100256.94;41732390;28;20088;-76
2023/12/20 02:49:53;;;;;;;9.85;7.40;;;;;;;20.29;52.71;100227.91;41725439;28;20135;-75
2023/12/20 03:09:54;;;;;;;9.52;7.30;;;;;;;20.28;52.38;100212.25;41697521;28;20041;-75
2023/12/20 03:29:55;;;;;;;10.88;7.78;;;;;;;20.29;52.60;100209.50;41715895;28;20113;-75
2023/12/20 03:49:57;;;;;;;9.77;7.43;;;;;;;20.23;52.34;100223.09;41732884;28;20048;-76
2023/12/20 04:09:57;;;;;;;11.18;8.18;;;;;;;20.18;52.15;100188.44;41741498;28;20069;-73
2023/12/20 04:29:59;;;;;;;10.57;7.80;;;;;;;20.21;52.38;100175.06;41733276;28;20049;-74
2023/12/20 04:49:59;;;;;;;10.75;7.95;;;;;;;20.23;51.99;100140.78;41712140;28;20052;-75
2023/12/20 05:10:00;;;;;;;10.65;8.02;;;;;;;20.37;51.63;100100.25;41699500;28;20044;-73
2023/12/20 05:30:00;;;;;;;13.32;8.40;;;;;;;21.05;50.15;100076.47;41678649;28;20131;-75
2023/12/20 05:50:01;;;;;;;12.02;8.35;;;;;;;21.20;50.72;100077.00;41707233;28;20049;-77
2023/12/20 06:10:02;;;;;;;50.03;13.27;;;;;;;20.59;49.19;100041.50;41710634;28;20041;-73
2023/12/20 06:30:03;;;;;;;25.70;13.15;;;;;;;21.21;45.96;100055.78;41702003;28;20045;-73
2023/12/20 06:50:03;;;;;;;21.08;11.27;;;;;;;21.53;46.81;100099.72;41693407;28;20185;-73
2023/12/20 07:10:04;;;;;;;20.25;11.40;;;;;;;21.63;46.57;100102.44;41683084;28;20048;-73
2023/12/20 07:30:05;;;;;;;17.52;11.45;;;;;;;21.69;46.26;100093.16;41688344;28;20129;-74
2023/12/20 07:50:06;;;;;;;16.70;10.88;;;;;;;21.60;46.78;100089.50;41689220;28;20128;-72
2023/12/20 08:10:07;;;;;;;16.10;11.25;;;;;;;21.70;46.33;100079.88;41689203;28;20052;-73
2023/12/20 08:30:12;;;;;;;17.58;11.55;;;;;;;21.71;46.10;100073.63;41696049;28;20148;-72
2023/12/20 08:50:13;;;;;;;16.00;10.88;;;;;;;21.69;46.24;100080.84;41702039;28;20041;-72
2023/12/20 09:10:14;;;;;;;17.73;11.25;;;;;;;21.47;46.49;100094.09;41713428;28;20041;-71
2023/12/20 09:30:14;;;;;;;16.23;11.20;;;;;;;21.62;46.47;100063.88;41696375;28;20069;-72
2023/12/20 09:50:17;;;;;;;15.57;11.15;;;;;;;21.70;46.14;100036.88;41715560;28;20037;-73
2023/12/20 10:10:18;;;;;;;18.52;12.35;;;;;;;21.56;45.17;100009.03;41698244;28;20769;-75
2023/12/20 10:30:18;;;;;;;20.77;12.50;;;;;;;21.66;45.62;99974.88;41718260;28;20094;-72
2023/12/20 10:50:20;;;;;;;26.73;12.75;;;;;;;21.61;46.12;99933.09;41706428;28;20045;-76
2023/12/20 11:10:26;;;;;;;27.65;13.30;;;;;;;22.09;46.80;99923.66;41704863;28;21029;-74
2023/12/20 11:30:40;;;;;;;22.23;13.10;;;;;;;22.19;46.10;99874.41;41744035;28;20116;-72
2023/12/20 11:50:42;;;;;;;21.33;13.13;;;;;;;22.45;45.85;99865.97;41735429;28;20045;-71
2023/12/20 12:10:44;;;;;;;19.17;12.98;;;;;;;22.53;45.46;99846.78;41700538;28;20051;-70
2023/12/20 12:30:57;;;;;;;20.58;12.93;;;;;;;22.32;46.69;99846.94;41700659;28;20041;-71
2023/12/20 12:50:59;;;;;;;18.25;12.15;;;;;;;22.04;47.09;99838.88;41693866;28;20041;-71
2023/12/20 13:11:00;;;;;;;17.40;12.35;;;;;;;21.82;47.36;99832.88;41706309;28;20052;-69
2023/12/20 13:31:01;;;;;;;16.63;10.80;;;;;;;21.67;46.99;99810.53;41693515;28;20037;-72
2023/12/20 13:51:02;;;;;;;22.50;10.75;;;;;;;22.11;46.18;99811.00;41661642;28;20462;-68
2023/12/20 14:11:03;;;;;;;38.38;13.52;;;;;;;;;;41661876;28;20052;-70
2023/12/20 14:31:05;;;;;;;32.72;11.27;;;;;;;21.69;47.27;99830.50;41666897;28;20060;-70
2023/12/20 14:51:05;;;;;;;34.25;11.50;;;;;;;21.62;47.41;99855.72;41691122;28;20045;-70
2023/12/20 15:11:06;;;;;;;47.58;12.88;;;;;;;21.39;47.08;99874.34;41675184;28;20045;-69
2023/12/20 15:31:06;;;;;;;31.60;11.95;;;;;;;21.31;47.77;99905.75;41664417;28;20041;-70
2023/12/20 15:51:14;;;;;;;25.80;10.93;;;;;;;21.22;48.15;99922.34;41667744;28;20041;-70
2023/12/20 16:11:15;;;;;;;22.00;9.48;;;;;;;21.19;47.95;99944.53;41682579;28;20048;-69
2023/12/20 16:31:17;;;;;;;24.08;8.98;;;;;;;21.18;47.96;99965.69;41672436;28;20510;-68
2023/12/20 16:51:17;;;;;;;15.18;7.78;;;;;;;21.05;48.61;99966.72;41718824;28;20041;-70
2023/12/20 17:11:18;;;;;;;15.18;7.45;;;;;;;21.00;48.13;99989.97;41736488;28;20646;-70
2023/12/20 17:31:18;;;;;;;21.77;7.57;;;;;;;21.02;48.73;99998.59;41720933;28;20040;-70
2023/12/20 17:51:19;;;;;;;14.93;6.63;;;;;;;20.94;49.22;100032.59;41705899;28;20049;-70
2023/12/20 18:11:20;;;;;;;14.65;6.25;;;;;;;20.92;49.02;100024.81;41678364;28;20464;-70
2023/12/20 18:31:21;;;;;;;16.35;7.82;;;;;;;21.21;49.78;100039.19;41707054;28;20107;-69
2023/12/20 18:51:23;;;;;;;14.45;7.60;;;;;;;21.24;50.13;100039.75;41699886;28;20538;-71
2023/12/20 19:11:24;;;;;;;47.28;21.17;;;;;;;21.30;52.19;100043.69;41680873;28;20048;-71
2023/12/20 19:31:25;;;;;;;46.30;23.45;;;;;;;21.47;52.95;100067.75;41669407;28;20068;-71
2023/12/20 19:51:27;;;;;;;36.38;18.95;;;;;;;21.48;51.97;100062.34;41670853;28;20048;-75
2023/12/20 20:11:36;;;;;;;31.23;16.42;;;;;;;21.43;51.56;100075.09;41713933;28;20045;-69
2023/12/20 20:31:37;;;;;;;32.65;14.88;;;;;;;21.15;51.76;100082.63;41713351;28;20120;-68
2023/12/20 20:51:39;;;;;;;26.13;11.60;;;;;;;20.86;51.92;100087.63;41709655;28;20574;-68
2023/12/20 21:11:40;;;;;;;25.10;10.65;;;;;;;20.86;51.40;100087.63;41668248;28;20396;-71
2023/12/20 21:31:41;;;;;;;17.50;8.55;;;;;;;20.77;51.55;100084.78;41661675;28;20103;-70
2023/12/20 21:51:41;;;;;;;18.17;7.90;;;;;;;20.73;51.75;100077.28;41640417;28;20050;-70
2023/12/20 22:11:42;;;;;;;11.60;7.28;;;;;;;20.63;52.42;100088.50;41647846;28;20523;-71
2023/12/20 22:31:42;;;;;;;12.35;6.72;;;;;;;20.60;52.86;100072.13;41649406;28;20045;-70
2023/12/20 22:51:43;;;;;;;10.30;5.82;;;;;;;20.54;53.29;100075.25;41663581;28;20076;-69
2023/12/20 23:11:43;;;;;;;10.27;5.43;;;;;;;20.51;53.35;100060.56;41652367;28;20045;-70
2023/12/20 23:31:43;;;;;;;8.63;4.75;;;;;;;20.49;53.12;100036.16;41647682;28;20591;-69
2023/12/20 23:51:44;;;;;;;9.25;5.00;;;;;;;20.43;53.49;100048.03;41682562;28;20090;-69
